Time;durP1;ratioP1;P1;durP2;ratioP2;P2;SDS_P1;SDS_P2;PMS_P1;PMS_P2;Temp;Humidity;BMP_temperature;BMP_pressure;BME280_temperature;BME280_humidity;BME280_pressure;Samples;Min_cycle;Max_cycle;Signal;HPM_P1;HPM_P2
2022/06/24 00:00:33;;;;;;;0.57;0.40;;;31.10;38.60;;;;;;5088588;28;20040;-49
2022/06/24 00:03:00;;;;;;;1.50;0.45;;;31.00;38.70;;;;;;5080755;28;20052;-49
2022/06/24 00:05:30;;;;;;;1.10;0.20;;;30.90;39.00;;;;;;5076849;28;20052;-48
2022/06/24 00:07:57;;;;;;;1.08;0.30;;;30.80;39.40;;;;;;5082858;28;20047;-49
2022/06/24 00:10:30;;;;;;;2.08;0.25;;;30.70;40.30;;;;;;5081053;28;20042;-47
2022/06/24 00:12:58;;;;;;;2.38;0.65;;;30.70;40.10;;;;;;5082063;28;20044;-49
2022/06/24 00:15:27;;;;;;;0.32;0.20;;;30.70;40.40;;;;;;5081769;28;20036;-52
2022/06/24 00:17:54;;;;;;;0.73;0.20;;;30.60;40.50;;;;;;5084301;28;20051;-56
2022/06/24 00:20:23;;;;;;;7.93;0.68;;;30.50;40.70;;;;;;5081179;28;20044;-53
2022/06/24 00:22:52;;;;;;;5.53;0.20;;;30.50;40.80;;;;;;5079232;28;20036;-55
2022/06/24 00:25:20;;;;;;;3.53;0.60;;;30.40;41.10;;;;;;5069115;28;20044;-56
2022/06/24 00:28:04;;;;;;;2.22;0.93;;;30.40;41.10;;;;;;5092817;28;20551;-57
2022/06/24 00:30:36;;;;;;;0.93;0.10;;;30.30;41.20;;;;;;5086335;28;20054;-53
2022/06/24 00:33:12;;;;;;;0.47;0.20;;;30.20;41.50;;;;;;5091660;28;20052;-52
2022/06/24 00:35:39;;;;;;;;;;;30.20;41.50;;;;;;5085044;28;20043;-54
2022/06/24 00:38:22;;;;;;;2.15;0.70;;;30.10;41.50;;;;;;5082835;28;19928;-54
2022/06/24 00:40:50;;;;;;;1.17;0.13;;;30.10;41.70;;;;;;5080092;28;20059;-53
2022/06/24 00:43:26;;;;;;;1.30;0.10;;;30.10;41.80;;;;;;5087499;28;20036;-56
2022/06/24 00:46:00;;;;;;;3.35;0.17;;;30.10;42.00;;;;;;5077736;28;20055;-45
2022/06/24 00:48:30;;;;;;;2.47;0.20;;;30.10;42.00;;;;;;5085080;28;20148;-53
2022/06/24 00:50:57;;;;;;;7.15;0.10;;;30.10;42.00;;;;;;5080525;28;20134;-51
2022/06/24 00:53:25;;;;;;;10.82;0.55;;;30.20;42.10;;;;;;5066949;28;20051;-52
2022/06/24 00:55:53;;;;;;;12.98;0.40;;;30.20;42.60;;;;;;5082322;28;20098;-54
2022/06/24 00:58:21;;;;;;;15.45;1.05;;;30.20;42.00;;;;;;5081610;28;20048;-54
2022/06/24 01:00:50;;;;;;;3.33;0.63;;;30.30;41.90;;;;;;5082665;28;20053;-54
2022/06/24 01:03:17;;;;;;;3.55;0.20;;;30.30;41.90;;;;;;5079984;28;20047;-52
2022/06/24 01:05:44;;;;;;;6.55;0.73;;;30.30;41.80;;;;;;5063247;28;20160;-50
2022/06/24 01:08:14;;;;;;;1.85;0.25;;;30.40;41.90;;;;;;5084459;28;20186;-48
2022/06/24 01:10:41;;;;;;;8.77;0.20;;;30.40;41.90;;;;;;5077555;28;20062;-49
2022/06/24 01:13:10;;;;;;;4.45;0.20;;;30.40;41.80;;;;;;5081035;28;20074;-52
2022/06/24 01:15:39;;;;;;;4.40;0.17;;;30.40;41.90;;;;;;5079539;28;20099;-51
2022/06/24 01:18:07;;;;;;;6.32;0.20;;;30.40;42.40;;;;;;5061510;28;20083;-43
2022/06/24 01:20:34;;;;;;;2.20;0.20;;;30.50;41.90;;;;;;5074180;28;20052;-45
2022/06/24 01:23:02;;;;;;;5.35;0.20;;;30.40;41.70;;;;;;5071988;28;20040;-42
2022/06/24 01:25:32;;;;;;;8.45;0.22;;;30.50;41.60;;;;;;5074213;28;20052;-45
2022/06/24 01:28:00;;;;;;;2.42;0.10;;;30.50;41.60;;;;;;5057083;28;20406;-42
2022/06/24 01:30:28;;;;;;;1.65;0.20;;;30.50;41.40;;;;;;5077086;28;20521;-43
2022/06/24 01:32:55;;;;;;;0.70;0.20;;;30.50;41.40;;;;;;5076410;28;20040;-45
2022/06/24 01:35:23;;;;;;;2.17;0.10;;;30.50;41.30;;;;;;5074534;28;20048;-43
2022/06/24 01:37:50;;;;;;;0.70;0.10;;;30.50;41.30;;;;;;5076381;28;20143;-46
2022/06/24 01:40:18;;;;;;;4.50;0.10;;;30.40;41.30;;;;;;5078618;28;20043;-43
2022/06/24 01:42:45;;;;;;;0.40;0.10;;;30.40;41.40;;;;;;5064420;28;20504;-42
2022/06/24 01:45:13;;;;;;;1.65;0.57;;;30.40;41.70;;;;;;5078531;28;20060;-42
2022/06/24 01:47:40;;;;;;;1.38;0.10;;;30.40;42.20;;;;;;5081512;28;20051;-46
2022/06/24 01:50:08;;;;;;;0.55;0.10;;;30.30;42.50;;;;;;5082757;28;20117;-42
2022/06/24 01:52:35;;;;;;;1.10;0.10;;;30.30;42.90;;;;;;5079589;28;20036;-43
2022/06/24 01:55:04;;;;;;;0.35;0.10;;;30.30;43.20;;;;;;5077100;28;20051;-45
2022/06/24 01:57:32;;;;;;;0.10;0.10;;;30.30;43.40;;;;;;5083546;28;20052;-42
2022/06/24 02:00:00;;;;;;;1.27;0.10;;;30.20;43.50;;;;;;5082226;28;20808;-43
2022/06/24 02:02:28;;;;;;;0.20;0.10;;;30.20;43.60;;;;;;5079717;28;20041;-42
2022/06/24 02:04:55;;;;;;;1.77;0.10;;;30.20;43.70;;;;;;5075977;28;20052;-43
2022/06/24 02:07:23;;;;;;;0.45;0.10;;;30.10;43.70;;;;;;5083253;28;20047;-44
2022/06/24 02:15:21;;;;;;;;;;;30.10;43.70;;;;;;5081652;28;20036;-46
2022/06/24 02:17:48;;;;;;;1.15;0.15;;;30.00;43.60;;;;;;5086395;28;20391;-42
2022/06/24 02:20:15;;;;;;;0.63;0.10;;;30.00;43.80;;;;;;5085446;28;20508;-42
2022/06/24 02:22:42;;;;;;;0.75;0.10;;;30.10;43.70;;;;;;5078977;28;20036;-41
2022/06/24 02:25:10;;;;;;;0.50;0.10;;;30.00;43.60;;;;;;5077288;28;20115;-44
2022/06/24 02:27:38;;;;;;;0.70;0.30;;;29.80;43.80;;;;;;5075008;28;20041;-40
2022/06/24 02:30:06;;;;;;;1.20;0.10;;;29.70;44.30;;;;;;5090234;28;20044;-43
2022/06/24 02:32:33;;;;;;;5.53;0.40;;;29.60;45.00;;;;;;5083727;28;20039;-42
2022/06/24 02:35:00;;;;;;;0.20;0.10;;;29.50;46.00;;;;;;5084196;28;20118;-42
2022/06/24 02:37:27;;;;;;;2.05;0.10;;;29.30;45.90;;;;;;5072927;28;20043;-42
2022/06/24 02:39:54;;;;;;;0.28;0.22;;;29.20;45.90;;;;;;5068971;28;20040;-42
2022/06/24 02:42:21;;;;;;;0.75;0.10;;;29.20;45.90;;;;;;5084827;28;20041;-45
2022/06/24 02:44:49;;;;;;;6.32;0.30;;;29.10;46.30;;;;;;5087516;28;20044;-42
2022/06/24 02:47:17;;;;;;;0.30;0.10;;;29.10;46.50;;;;;;5075076;28;20044;-44
2022/06/24 02:49:44;;;;;;;2.40;0.20;;;29.00;46.90;;;;;;5083454;28;20040;-42
2022/06/24 02:52:11;;;;;;;2.17;0.10;;;28.90;47.20;;;;;;5079605;28;20043;-42
2022/06/24 02:54:38;;;;;;;0.38;0.10;;;28.90;47.00;;;;;;5069431;28;20062;-44
2022/06/24 02:57:05;;;;;;;1.17;0.50;;;28.80;47.10;;;;;;5083226;28;20040;-42
2022/06/24 02:59:32;;;;;;;0.50;0.20;;;28.80;47.20;;;;;;5081334;28;20044;-44
2022/06/24 03:02:01;;;;;;;0.50;0.10;;;28.70;47.50;;;;;;5072301;28;20060;-43
2022/06/24 03:04:28;;;;;;;0.35;0.20;;;28.60;47.30;;;;;;5078621;28;20044;-42
2022/06/24 03:06:55;;;;;;;0.32;0.10;;;28.60;47.50;;;;;;5073695;28;20031;-42
2022/06/24 03:09:22;;;;;;;0.70;0.10;;;28.50;47.60;;;;;;5080774;28;20412;-43
2022/06/24 03:11:49;;;;;;;2.10;0.10;;;28.50;47.70;;;;;;5083118;28;20040;-43
2022/06/24 03:14:16;;;;;;;1.08;0.35;;;28.40;47.70;;;;;;5077978;28;20041;-43
2022/06/24 03:16:43;;;;;;;0.10;0.10;;;28.40;47.80;;;;;;5076244;28;20047;-42
2022/06/24 03:19:11;;;;;;;0.20;0.10;;;28.40;47.90;;;;;;5075195;28;20067;-42
2022/06/24 03:21:38;;;;;;;0.63;0.10;;;28.30;47.90;;;;;;5067820;28;20048;-42
2022/06/24 03:24:06;;;;;;;0.40;0.15;;;28.20;48.10;;;;;;5078632;28;20040;-42
2022/06/24 03:26:33;;;;;;;0.20;0.10;;;28.20;48.10;;;;;;5085918;28;20036;-42
2022/06/24 03:29:00;;;;;;;0.70;0.30;;;28.10;48.30;;;;;;5082335;28;20127;-45
2022/06/24 03:31:27;;;;;;;0.57;0.10;;;28.10;48.40;;;;;;5081966;28;20032;-45
2022/06/24 03:33:55;;;;;;;0.10;0.10;;;28.10;48.60;;;;;;5071676;28;20053;-43
2022/06/24 03:36:24;;;;;;;1.10;0.10;;;28.00;48.50;;;;;;5089044;28;20040;-42
2022/06/24 03:38:52;;;;;;;0.47;0.10;;;28.00;48.70;;;;;;5073547;28;20149;-42
2022/06/24 03:41:19;;;;;;;1.25;0.13;;;28.00;48.70;;;;;;5080599;28;20579;-42
2022/06/24 03:43:46;;;;;;;0.98;0.20;;;27.90;48.70;;;;;;5081371;28;20044;-42
2022/06/24 03:46:13;;;;;;;0.47;0.47;;;27.90;48.80;;;;;;5080084;28;20047;-42
2022/06/24 03:48:40;;;;;;;0.10;0.10;;;27.90;48.90;;;;;;5075287;28;20051;-41
2022/06/24 03:51:07;;;;;;;1.35;1.05;;;27.80;48.90;;;;;;5072940;28;20579;-42
2022/06/24 03:53:35;;;;;;;0.52;0.10;;;27.80;49.00;;;;;;5071796;28;20044;-44
2022/06/24 03:56:02;;;;;;;0.25;0.20;;;27.80;49.20;;;;;;5054761;28;20135;-43
2022/06/24 03:58:29;;;;;;;0.30;0.10;;;27.80;49.30;;;;;;5077615;28;20131;-45
2022/06/24 04:01:01;;;;;;;0.70;0.20;;;27.70;49.30;;;;;;5071593;28;20045;-42
2022/06/24 04:03:28;;;;;;;1.65;0.10;;;27.70;49.50;;;;;;5068433;28;20087;-43
2022/06/24 04:05:56;;;;;;;4.05;0.10;;;27.70;49.60;;;;;;5076179;28;20476;-43
2022/06/24 04:08:23;;;;;;;0.40;0.10;;;27.60;49.80;;;;;;5076189;28;20102;-44
2022/06/24 04:10:52;;;;;;;0.15;0.10;;;27.60;50.00;;;;;;5073026;28;20040;-45
2022/06/24 04:13:19;;;;;;;0.28;0.20;;;27.60;50.00;;;;;;5070613;28;20394;-42
2022/06/24 04:15:49;;;;;;;4.53;0.60;;;27.60;50.30;;;;;;5069830;28;20033;-46
2022/06/24 04:18:17;;;;;;;0.60;0.10;;;27.60;50.50;;;;;;5075955;28;20045;-42
2022/06/24 04:20:44;;;;;;;2.28;0.10;;;27.60;50.60;;;;;;5072947;28;20044;-42
2022/06/24 04:23:11;;;;;;;0.75;0.43;;;27.70;50.60;;;;;;5074566;28;20076;-43
2022/06/24 04:25:38;;;;;;;1.27;0.15;;;27.70;50.60;;;;;;5074529;28;20117;-45
2022/06/24 04:28:07;;;;;;;2.38;0.10;;;27.80;50.60;;;;;;5073195;28;20032;-42
2022/06/24 04:30:34;;;;;;;0.20;0.10;;;27.80;50.50;;;;;;5073710;28;20124;-42
2022/06/24 04:33:01;;;;;;;7.30;0.63;;;27.90;50.50;;;;;;5076878;28;20044;-44
2022/06/24 04:35:28;;;;;;;0.73;0.10;;;27.90;50.50;;;;;;5077225;28;20060;-43
2022/06/24 04:37:56;;;;;;;0.55;0.10;;;28.00;50.50;;;;;;5070919;28;20040;-43
2022/06/24 04:40:24;;;;;;;0.52;0.10;;;28.00;50.40;;;;;;5075646;28;20035;-42
2022/06/24 04:42:51;;;;;;;0.45;0.20;;;28.00;50.40;;;;;;5080777;28;20041;-44
2022/06/24 04:45:20;;;;;;;0.73;0.20;;;28.00;50.40;;;;;;5070973;28;20493;-42
2022/06/24 04:47:47;;;;;;;0.25;0.10;;;28.10;50.60;;;;;;5055476;28;20059;-43
2022/06/24 04:50:14;;;;;;;1.60;0.10;;;28.10;50.40;;;;;;5075700;28;20151;-42
2022/06/24 04:52:42;;;;;;;0.85;0.25;;;28.10;50.30;;;;;;5078850;28;20044;-43
2022/06/24 04:55:09;;;;;;;0.40;0.10;;;28.10;50.20;;;;;;5072389;28;20720;-42
2022/06/24 04:57:36;;;;;;;0.35;0.10;;;28.10;50.10;;;;;;5070110;28;20078;-42
2022/06/24 05:00:04;;;;;;;0.73;0.10;;;28.10;50.00;;;;;;5077110;28;20087;-43
2022/06/24 05:02:33;;;;;;;0.32;0.20;;;28.20;50.10;;;;;;5073432;28;20682;-44
2022/06/24 05:05:00;;;;;;;0.30;0.10;;;28.20;50.00;;;;;;5073617;28;20131;-42
2022/06/24 05:07:27;;;;;;;0.50;0.20;;;28.20;50.60;;;;;;5073698;28;20455;-42
2022/06/24 05:09:54;;;;;;;2.83;0.10;;;28.20;49.90;;;;;;5071748;28;20045;-41
2022/06/24 05:12:22;;;;;;;0.10;0.10;;;28.20;49.80;;;;;;5074714;28;20189;-41
2022/06/24 05:14:49;;;;;;;0.10;0.10;;;28.20;49.70;;;;;;5075645;28;20040;-41
2022/06/24 05:17:16;;;;;;;0.57;0.20;;;28.20;49.60;;;;;;5076354;28;20051;-41
2022/06/24 05:19:44;;;;;;;0.90;0.10;;;28.20;49.60;;;;;;5074549;28;20509;-42
2022/06/24 05:22:12;;;;;;;1.05;0.20;;;28.20;49.50;;;;;;5074624;28;20044;-41
2022/06/24 05:24:39;;;;;;;1.33;0.10;;;28.20;49.50;;;;;;5069084;28;20036;-41
2022/06/24 05:27:07;;;;;;;0.88;0.30;;;28.20;49.50;;;;;;5087081;28;20130;-42
2022/06/24 05:29:34;;;;;;;0.60;0.60;;;28.20;49.50;;;;;;5074427;28;20145;-42
2022/06/24 05:32:01;;;;;;;0.40;0.10;;;28.20;49.40;;;;;;5077086;28;20043;-42
2022/06/24 05:34:28;;;;;;;2.35;0.20;;;28.20;49.40;;;;;;5085096;28;20071;-42
2022/06/24 05:36:57;;;;;;;1.25;0.10;;;28.20;49.40;;;;;;5076869;28;20048;-42
2022/06/24 05:39:24;;;;;;;0.10;0.10;;;28.20;49.40;;;;;;5072061;28;20512;-44
2022/06/24 05:41:52;;;;;;;0.57;0.10;;;28.30;49.50;;;;;;5084782;28;20040;-42
2022/06/24 05:44:19;;;;;;;1.70;0.13;;;28.30;49.40;;;;;;5076681;28;20685;-44
2022/06/24 05:46:46;;;;;;;1.75;0.10;;;28.30;49.40;;;;;;5079161;28;20036;-42
2022/06/24 05:49:13;;;;;;;0.65;0.50;;;28.30;49.30;;;;;;5083385;28;20040;-42
2022/06/24 05:51:40;;;;;;;0.82;0.10;;;28.30;49.30;;;;;;5072157;28;20111;-41
2022/06/24 05:56:54;;;;;;;1.88;0.22;;;28.30;49.20;;;;;;5075226;28;20047;-41
2022/06/24 05:59:21;;;;;;;1.70;0.20;;;28.30;49.10;;;;;;5077680;28;20052;-42
2022/06/24 06:01:49;;;;;;;0.60;0.10;;;28.30;49.10;;;;;;5074136;28;20504;-42
2022/06/24 06:04:17;;;;;;;1.25;0.47;;;28.30;49.10;;;;;;5073584;28;20040;-42
2022/06/24 06:06:44;;;;;;;0.98;0.10;;;28.30;49.10;;;;;;5072723;28;20047;-42
2022/06/24 06:09:12;;;;;;;0.22;0.10;;;28.30;49.00;;;;;;5087366;28;20171;-41
2022/06/24 06:11:40;;;;;;;1.23;0.22;;;28.30;49.00;;;;;;5079331;28;20051;-43
2022/06/24 06:14:07;;;;;;;0.60;0.10;;;28.40;49.00;;;;;;5087512;28;20090;-43
2022/06/24 06:16:34;;;;;;;4.45;0.17;;;28.40;48.90;;;;;;5088085;28;20031;-41
2022/06/24 06:19:02;;;;;;;0.95;0.10;;;28.40;48.90;;;;;;5075222;28;20199;-41
2022/06/24 06:21:29;;;;;;;0.63;0.10;;;28.40;48.90;;;;;;5070758;28;20048;-42
2022/06/24 06:23:56;;;;;;;0.77;0.10;;;28.40;48.80;;;;;;5084404;28;20168;-41
2022/06/24 06:26:25;;;;;;;1.75;0.10;;;28.40;48.90;;;;;;5083726;28;20131;-41
2022/06/24 06:28:53;;;;;;;1.08;0.10;;;28.40;48.80;;;;;;5073461;28;20090;-42
2022/06/24 06:31:21;;;;;;;0.75;0.25;;;28.40;48.90;;;;;;5070848;28;20036;-41
2022/06/24 06:33:48;;;;;;;2.80;0.13;;;28.40;49.00;;;;;;5073206;28;20473;-40
2022/06/24 06:36:15;;;;;;;4.82;0.22;;;28.40;49.00;;;;;;5067901;28;20148;-43
2022/06/24 06:38:43;;;;;;;0.28;0.20;;;28.50;49.10;;;;;;5074745;28;20059;-42
2022/06/24 06:41:10;;;;;;;0.20;0.10;;;28.40;49.00;;;;;;5075659;28;20040;-41
2022/06/24 06:43:39;;;;;;;0.20;0.20;;;28.50;49.10;;;;;;5081877;28;20049;-41
2022/06/24 06:46:09;;;;;;;0.45;0.10;;;28.50;49.10;;;;;;5063348;28;20036;-42
2022/06/24 06:48:37;;;;;;;0.80;0.10;;;28.50;49.10;;;;;;5073045;28;20423;-41
2022/06/24 06:51:04;;;;;;;0.25;0.10;;;28.50;49.10;;;;;;5079908;28;20040;-41
2022/06/24 06:53:31;;;;;;;2.05;0.10;;;28.50;49.10;;;;;;5075570;28;20064;-41
2022/06/24 06:55:58;;;;;;;1.15;0.10;;;28.50;49.20;;;;;;5075002;28;20155;-41
2022/06/24 06:58:26;;;;;;;0.68;0.43;;;28.50;49.20;;;;;;5074895;28;20048;-41
2022/06/24 07:00:54;;;;;;;1.30;0.10;;;28.50;49.20;;;;;;5075327;28;20059;-41
2022/06/24 07:03:21;;;;;;;0.85;0.10;;;28.50;49.20;;;;;;5070981;28;20118;-41
2022/06/24 07:05:49;;;;;;;0.10;0.10;;;28.50;49.20;;;;;;5077103;28;20037;-40
2022/06/24 07:08:16;;;;;;;1.85;0.10;;;28.50;49.20;;;;;;5076956;28;20656;-40
2022/06/24 07:10:45;;;;;;;2.15;0.40;;;28.50;48.90;;;;;;5073171;28;20432;-40
2022/06/24 07:13:13;;;;;;;0.98;0.20;;;28.50;49.00;;;;;;5075608;28;20101;-48
2022/06/24 07:15:43;;;;;;;0.20;0.10;;;28.50;49.00;;;;;;5073270;28;20032;-40
2022/06/24 07:18:12;;;;;;;0.55;0.13;;;28.50;48.80;;;;;;5076506;28;20048;-41
2022/06/24 07:20:39;;;;;;;0.20;0.10;;;28.50;48.80;;;;;;5073783;28;20056;-39
2022/06/24 07:23:06;;;;;;;0.47;0.10;;;28.50;48.80;;;;;;5076111;28;20128;-40
2022/06/24 07:25:34;;;;;;;0.10;0.10;;;28.50;48.70;;;;;;5073936;28;20048;-40
2022/06/24 07:28:01;;;;;;;0.45;0.10;;;28.50;48.70;;;;;;5079243;28;20043;-41
2022/06/24 07:30:29;;;;;;;0.57;0.10;;;28.50;48.70;;;;;;5073736;28;20121;-40
2022/06/24 07:32:57;;;;;;;0.10;0.10;;;28.50;48.60;;;;;;5073068;28;20039;-40
2022/06/24 07:35:26;;;;;;;0.60;0.10;;;28.50;48.50;;;;;;5071394;28;20059;-41
2022/06/24 07:37:53;;;;;;;1.08;0.10;;;28.60;48.40;;;;;;5073437;28;20040;-41
2022/06/24 07:40:20;;;;;;;1.75;0.10;;;28.50;48.50;;;;;;5074568;28;20051;-41
2022/06/24 07:42:47;;;;;;;0.10;0.10;;;28.50;48.20;;;;;;5074138;28;20128;-41
2022/06/24 07:45:15;;;;;;;2.90;0.10;;;28.50;48.30;;;;;;5077568;28;20040;-40
2022/06/24 07:47:42;;;;;;;0.80;0.10;;;28.50;48.10;;;;;;5075000;28;20044;-40
2022/06/24 07:50:09;;;;;;;3.10;0.30;;;28.50;48.30;;;;;;5073881;28;20036;-43
2022/06/24 07:52:38;;;;;;;5.95;0.10;;;28.50;48.40;;;;;;5071615;28;20043;-42
2022/06/24 07:57:50;;;;;;;1.85;0.40;;;28.50;48.40;;;;;;5010192;28;20052;-40
2022/06/24 08:00:18;;;;;;;2.35;0.10;;;28.50;48.40;;;;;;5000879;28;20053;-40
2022/06/24 08:02:45;;;;;;;0.32;0.00;;;28.50;48.50;;;;;;5014273;28;20475;-40
2022/06/24 08:05:12;;;;;;;2.05;0.20;;;28.50;48.30;;;;;;5014492;28;20408;-41
2022/06/24 08:07:40;;;;;;;2.60;0.10;;;28.50;48.00;;;;;;5012174;28;20643;-43
2022/06/24 08:10:09;;;;;;;2.92;0.63;;;28.60;48.00;;;;;;5015101;28;20045;-40
2022/06/24 08:12:36;;;;;;;3.70;0.10;;;28.50;47.80;;;;;;5005606;28;20038;-40
2022/06/24 08:15:04;;;;;;;1.95;0.10;;;28.50;47.90;;;;;;5021372;28;20041;-41
2022/06/24 08:17:31;;;;;;;1.40;0.10;;;28.50;47.80;;;;;;5014470;28;20942;-40
2022/06/24 08:19:58;;;;;;;0.10;0.10;;;28.50;47.50;;;;;;5013992;28;20045;-41
2022/06/24 08:22:25;;;;;;;1.63;0.10;;;28.50;47.40;;;;;;5022478;28;20057;-41
2022/06/24 08:24:54;;;;;;;1.88;0.75;;;28.50;47.80;;;;;;5026680;28;20045;-42
2022/06/24 08:27:21;;;;;;;2.65;0.10;;;28.50;47.70;;;;;;5026628;28;21276;-42
2022/06/24 08:29:48;;;;;;;1.55;0.10;;;28.50;47.50;;;;;;5030091;28;20054;-41
2022/06/24 08:32:15;;;;;;;1.42;0.10;;;28.50;47.70;;;;;;5018325;28;20045;-42
2022/06/24 08:34:43;;;;;;;1.02;0.20;;;28.50;47.60;;;;;;5043305;28;20516;-42
2022/06/24 08:37:10;;;;;;;0.82;0.10;;;28.50;47.30;;;;;;5074228;28;20123;-42
2022/06/24 08:39:37;;;;;;;3.85;0.73;;;28.50;46.90;;;;;;5079747;28;20048;-42
2022/06/24 08:42:07;;;;;;;5.88;0.50;;;28.50;46.50;;;;;;5086279;28;20043;-41
2022/06/24 08:44:37;;;;;;;4.53;0.10;;;28.40;45.80;;;;;;5086754;28;20060;-42
2022/06/24 08:47:04;;;;;;;1.00;0.20;;;28.40;45.80;;;;;;5083938;28;20504;-44
2022/06/24 08:49:33;;;;;;;0.20;0.10;;;28.30;45.70;;;;;;5083028;28;20040;-45
2022/06/24 08:52:01;;;;;;;1.60;0.10;;;28.30;45.10;;;;;;5084622;28;20040;-43
2022/06/24 08:54:31;;;;;;;4.03;0.10;;;28.40;45.00;;;;;;5079570;28;20050;-43
2022/06/24 08:56:59;;;;;;;0.75;0.10;;;28.30;44.80;;;;;;5084442;28;20039;-42
2022/06/24 08:59:29;;;;;;;1.90;0.20;;;28.30;44.60;;;;;;5078969;28;20050;-44
2022/06/24 09:01:56;;;;;;;0.25;0.10;;;28.20;44.50;;;;;;5082783;28;20044;-42
2022/06/24 09:04:24;;;;;;;1.05;0.40;;;28.20;44.90;;;;;;5093952;28;20096;-44
2022/06/24 09:06:52;;;;;;;1.95;0.10;;;28.20;44.70;;;;;;5080085;28;20076;-49
2022/06/24 09:09:25;;;;;;;2.00;0.10;;;28.20;44.90;;;;;;5076431;28;20064;-66
2022/06/24 09:11:55;;;;;;;1.65;0.00;;;28.20;45.10;;;;;;5083926;28;20040;-62
2022/06/24 09:14:22;;;;;;;5.80;0.10;;;28.20;45.10;;;;;;5087637;28;20072;-56
2022/06/24 09:16:51;;;;;;;1.60;0.10;;;28.40;45.30;;;;;;5085859;28;20035;-58
2022/06/24 09:19:18;;;;;;;1.10;0.00;;;28.70;45.20;;;;;;5081576;28;20044;-58
2022/06/24 09:21:46;;;;;;;2.55;0.10;;;29.10;44.70;;;;;;5066453;28;20048;-62
2022/06/24 09:24:15;;;;;;;1.77;0.10;;;29.60;44.10;;;;;;5087430;28;20055;-55
2022/06/24 09:26:43;;;;;;;3.70;0.10;;;30.20;43.10;;;;;;5072268;28;20044;-60
2022/06/24 09:29:12;;;;;;;0.98;0.10;;;30.80;42.30;;;;;;5089961;28;20032;-57
2022/06/24 09:31:40;;;;;;;0.35;0.10;;;31.20;41.60;;;;;;5080886;28;20119;-64
2022/06/24 09:34:10;;;;;;;0.65;0.10;;;31.50;40.80;;;;;;5081811;28;20044;-64
2022/06/24 09:36:40;;;;;;;0.52;0.00;;;31.70;40.20;;;;;;5090104;28;20123;-64
2022/06/24 09:39:10;;;;;;;0.05;0.05;;;32.00;39.70;;;;;;5086221;28;20032;-55
2022/06/24 09:41:43;;;;;;;1.58;0.20;;;32.20;39.30;;;;;;5083188;28;20040;-56
2022/06/24 09:44:11;;;;;;;0.47;0.00;;;32.50;39.00;;;;;;5088777;28;20055;-54
2022/06/24 09:46:39;;;;;;;0.10;0.10;;;32.60;38.50;;;;;;5079302;28;20048;-55
2022/06/24 09:49:07;;;;;;;0.65;0.10;;;32.80;38.30;;;;;;5078979;28;20036;-57
2022/06/24 09:51:36;;;;;;;0.10;0.10;;;32.90;37.80;;;;;;5085495;28;20047;-55
2022/06/24 09:54:04;;;;;;;0.43;0.00;;;33.10;37.40;;;;;;5087542;28;20048;-53
2022/06/24 09:56:32;;;;;;;0.75;0.10;;;33.30;37.20;;;;;;5087848;28;20044;-55
2022/06/24 10:01:43;;;;;;;0.55;0.05;;;33.60;37.50;;;;;;5024596;28;20063;-54
2022/06/24 10:04:14;;;;;;;0.82;0.25;;;33.80;36.60;;;;;;5025630;28;20136;-54
2022/06/24 10:06:45;;;;;;;0.13;0.00;;;33.90;36.00;;;;;;5028714;28;20057;-53
2022/06/24 10:09:13;;;;;;;0.47;0.38;;;34.00;35.50;;;;;;5027722;28;20049;-55
2022/06/24 10:11:43;;;;;;;0.10;0.00;;;34.00;35.40;;;;;;5039117;28;20465;-55
2022/06/24 10:14:12;;;;;;;1.85;0.10;;;33.90;35.20;;;;;;5030930;28;20057;-54
2022/06/24 10:16:42;;;;;;;0.95;0.03;;;33.80;35.10;;;;;;5026645;28;20120;-55
2022/06/24 10:19:10;;;;;;;0.32;0.10;;;33.60;35.10;;;;;;5030866;28;20043;-53
2022/06/24 10:21:39;;;;;;;0.70;0.10;;;33.40;35.20;;;;;;5024709;28;20341;-55
2022/06/24 10:24:15;;;;;;;0.10;0.05;;;33.30;35.50;;;;;;5026539;28;20368;-55
2022/06/24 10:26:46;;;;;;;0.00;0.00;;;33.10;35.70;;;;;;5038253;28;20546;-54
2022/06/24 10:29:21;;;;;;;1.45;0.10;;;32.80;35.60;;;;;;5025960;28;20553;-55
2022/06/24 10:32:00;;;;;;;0.40;0.03;;;32.60;35.90;;;;;;5020246;28;20052;-53
2022/06/24 10:34:31;;;;;;;0.80;0.10;;;32.30;36.00;;;;;;5029650;28;20037;-53
2022/06/24 10:37:00;;;;;;;0.10;0.00;;;32.20;36.40;;;;;;5028320;28;20050;-53
2022/06/24 10:39:30;;;;;;;0.75;0.10;;;32.00;36.60;;;;;;5058217;28;20060;-55
2022/06/24 10:42:03;;;;;;;0.22;0.10;;;31.90;36.90;;;;;;5065670;28;20043;-55
2022/06/24 10:44:32;;;;;;;0.77;0.00;;;31.70;36.80;;;;;;5091467;28;20040;-54
2022/06/24 10:47:25;;;;;;;0.75;0.40;;;31.60;37.00;;;;;;5090105;28;20044;-54
2022/06/24 10:50:04;;;;;;;0.00;0.00;;;31.50;37.20;;;;;;5080846;28;20097;-52
2022/06/24 10:52:33;;;;;;;0.20;0.00;;;31.30;38.10;;;;;;5086093;28;20045;-51
2022/06/24 10:55:36;;;;;;;0.00;0.00;;;31.30;37.70;;;;;;5077703;28;20036;-55
2022/06/24 10:58:05;;;;;;;0.03;0.00;;;31.20;37.80;;;;;;5066215;28;20071;-55
2022/06/24 11:00:53;;;;;;;0.65;0.10;;;31.10;37.60;;;;;;5079334;28;20126;-55
2022/06/24 11:03:24;;;;;;;0.30;0.00;;;31.00;37.30;;;;;;5090761;28;20127;-57
2022/06/24 11:05:52;;;;;;;0.00;0.00;;;30.90;37.40;;;;;;5081973;28;20040;-55
2022/06/24 11:08:20;;;;;;;0.22;0.08;;;30.90;37.50;;;;;;5075822;28;20033;-56
2022/06/24 11:10:50;;;;;;;0.10;0.10;;;30.90;37.50;;;;;;5084582;28;20037;-54
2022/06/24 11:13:20;;;;;;;0.47;0.00;;;30.80;37.60;;;;;;5081527;28;20064;-55
2022/06/24 11:15:49;;;;;;;0.17;0.17;;;30.80;37.60;;;;;;5085378;28;20516;-54
2022/06/24 11:18:18;;;;;;;0.10;0.00;;;30.70;37.70;;;;;;5085542;28;20036;-56
2022/06/24 11:20:49;;;;;;;0.43;0.00;;;30.70;37.80;;;;;;5088784;28;20101;-52
2022/06/24 11:23:18;;;;;;;0.00;0.00;;;30.70;38.00;;;;;;5085610;28;20139;-57
2022/06/24 11:25:47;;;;;;;0.08;0.08;;;30.60;38.10;;;;;;5089096;28;20040;-57
2022/06/24 11:28:23;;;;;;;0.10;0.03;;;30.60;38.20;;;;;;5090170;28;20039;-53
2022/06/24 11:30:51;;;;;;;4.22;0.00;;;30.60;38.30;;;;;;5084308;28;20837;-54
2022/06/24 11:33:19;;;;;;;0.00;0.00;;;30.60;38.40;;;;;;5089564;28;20047;-53
2022/06/24 11:35:47;;;;;;;0.20;0.00;;;30.60;38.50;;;;;;5092470;28;20048;-55
2022/06/24 11:38:16;;;;;;;0.20;0.20;;;30.50;39.10;;;;;;5079417;28;20040;-53
2022/06/24 11:40:44;;;;;;;1.55;0.00;;;30.50;38.50;;;;;;5069060;28;20107;-53
2022/06/24 11:43:13;;;;;;;0.32;0.00;;;30.50;38.60;;;;;;5091408;28;20044;-55
2022/06/24 11:45:43;;;;;;;0.10;0.00;;;30.40;39.20;;;;;;5074623;28;20529;-56
2022/06/24 11:48:12;;;;;;;0.10;0.10;;;30.50;39.80;;;;;;5079387;28;20042;-53
2022/06/24 11:50:40;;;;;;;0.73;0.10;;;30.50;40.00;;;;;;5084206;28;20043;-56
2022/06/24 11:53:08;;;;;;;0.15;0.00;;;30.40;40.00;;;;;;5083526;28;20037;-54
2022/06/24 11:55:37;;;;;;;0.20;0.05;;;30.50;39.70;;;;;;5083720;28;20054;-53
2022/06/24 11:58:06;;;;;;;3.60;0.10;;;30.50;39.70;;;;;;5079552;28;20124;-54
2022/06/24 12:00:36;;;;;;;0.80;0.10;;;30.40;39.80;;;;;;5085796;28;20573;-55
2022/06/24 12:03:07;;;;;;;0.00;0.00;;;30.40;39.70;;;;;;5080874;28;20044;-49
2022/06/24 12:05:39;;;;;;;0.40;0.00;;;30.40;39.80;;;;;;5083605;28;20040;-52
2022/06/24 12:08:07;;;;;;;0.55;0.00;;;30.40;41.00;;;;;;5084263;28;20083;-56
2022/06/24 12:10:35;;;;;;;0.35;0.10;;;30.40;42.00;;;;;;5087456;28;20044;-55
2022/06/24 12:13:05;;;;;;;0.20;0.00;;;30.40;42.80;;;;;;5086104;28;20044;-55
2022/06/24 12:15:52;;;;;;;1.10;0.65;;;30.40;42.90;;;;;;5080787;28;20060;-53
2022/06/24 12:18:23;;;;;;;1.48;0.85;;;30.50;43.30;;;;;;5086919;28;20044;-57
2022/06/24 12:21:03;;;;;;;0.50;0.00;;;30.50;43.70;;;;;;5074611;28;20078;-53
2022/06/24 12:23:36;;;;;;;3.17;0.10;;;30.50;44.20;;;;;;5080363;28;20043;-55
2022/06/24 12:26:14;;;;;;;1.30;0.00;;;30.50;43.50;;;;;;5085846;28;20051;-53
2022/06/24 12:28:43;;;;;;;1.95;0.10;;;30.50;43.50;;;;;;5082744;28;20028;-54
2022/06/24 12:31:11;;;;;;;0.40;0.10;;;30.50;43.20;;;;;;5077835;28;20040;-55
2022/06/24 12:33:51;;;;;;;0.40;0.40;;;30.50;43.40;;;;;;5087016;28;20511;-55
2022/06/24 12:36:21;;;;;;;0.10;0.00;;;30.50;42.90;;;;;;5080206;28;20036;-59
2022/06/24 12:39:01;;;;;;;1.30;0.08;;;30.50;42.70;;;;;;5086280;28;20055;-59
2022/06/24 12:41:29;;;;;;;0.47;0.10;;;30.60;42.10;;;;;;5077926;28;20070;-60
2022/06/24 12:43:58;;;;;;;0.22;0.00;;;30.60;41.90;;;;;;5080914;28;20060;-61
2022/06/24 12:46:28;;;;;;;1.55;0.00;;;30.60;41.50;;;;;;5078749;28;20048;-60
2022/06/24 12:51:43;;;;;;;0.35;0.30;;;30.60;40.90;;;;;;5069090;28;20603;-58
2022/06/24 12:54:12;;;;;;;0.00;0.00;;;30.60;40.90;;;;;;5071747;28;20050;-59
2022/06/24 12:56:39;;;;;;;0.10;0.00;;;30.70;40.70;;;;;;5083622;28;20059;-58
2022/06/24 12:59:07;;;;;;;0.35;0.03;;;30.70;40.70;;;;;;5070012;28;20040;-61
2022/06/24 13:01:42;;;;;;;1.67;0.10;;;30.70;40.80;;;;;;5078231;28;20056;-62
2022/06/24 13:04:11;;;;;;;0.10;0.10;;;30.70;42.10;;;;;;5081038;28;20075;-57
2022/06/24 13:06:39;;;;;;;1.65;0.00;;;30.70;43.60;;;;;;5081450;28;20381;-57
2022/06/24 13:09:07;;;;;;;2.17;0.10;;;30.60;43.90;;;;;;5089245;28;20044;-57
2022/06/24 13:11:35;;;;;;;0.98;0.10;;;30.70;45.20;;;;;;5076547;28;20051;-60